createdAt,value
2018-09-04T00:01:50.258Z,23.20
2018-09-04T00:04:18.364Z,25.37
2018-09-04T00:06:46.502Z,23.07
2018-09-04T00:09:14.684Z,25.17
2018-09-04T00:11:42.854Z,25.40
2018-09-04T00:14:11.241Z,25.43
2018-09-04T00:16:39.447Z,25.00
2018-09-04T00:19:07.658Z,21.43
2018-09-04T00:21:35.851Z,22.43
2018-09-04T00:24:04.053Z,24.20
2018-09-04T00:26:32.262Z,22.87
2018-09-04T00:29:00.432Z,24.53
2018-09-04T00:31:28.533Z,24.60
2018-09-04T00:33:56.677Z,23.03
2018-09-04T00:36:24.790Z,23.87
2018-09-04T00:38:52.971Z,24.77
2018-09-04T00:41:21.114Z,23.97
2018-09-04T00:43:49.204Z,23.33
2018-09-04T00:46:17.343Z,24.57
2018-09-04T00:48:45.524Z,22.07
2018-09-04T00:51:13.693Z,25.07
2018-09-04T00:53:41.870Z,23.80
2018-09-04T00:56:10.035Z,24.33
2018-09-04T00:58:38.202Z,24.80
2018-09-04T01:01:06.413Z,22.00
2018-09-04T01:03:34.584Z,24.23
2018-09-04T01:06:02.712Z,24.53
2018-09-04T01:08:31.122Z,23.13
2018-09-04T01:10:59.377Z,24.27
2018-09-04T01:13:27.572Z,22.87
2018-09-04T01:15:55.737Z,24.03
2018-09-04T01:18:23.826Z,23.23
2018-09-04T01:20:51.943Z,25.00
2018-09-04T01:23:20.042Z,23.50
2018-09-04T01:25:48.204Z,23.00
2018-09-04T01:28:16.360Z,23.60
2018-09-04T01:30:44.472Z,24.10
2018-09-04T01:33:12.610Z,23.13
2018-09-04T01:35:40.880Z,25.03
2018-09-04T01:38:09.014Z,22.93
2018-09-04T01:40:37.168Z,21.70
2018-09-04T01:43:05.304Z,22.90
2018-09-04T01:45:33.502Z,24.13
2018-09-04T01:48:01.612Z,23.00
2018-09-04T01:50:29.769Z,23.97
2018-09-04T01:52:57.910Z,22.87
2018-09-04T01:55:26.053Z,22.87
2018-09-04T01:57:54.138Z,25.30
2018-09-04T02:00:22.320Z,22.13
2018-09-04T02:02:50.417Z,22.93
2018-09-04T02:05:18.545Z,22.63
2018-09-04T02:07:46.646Z,25.97
2018-09-04T02:10:14.788Z,22.83
2018-09-04T02:12:42.902Z,26.40
2018-09-04T02:15:11.058Z,25.17
2018-09-04T02:17:39.232Z,26.07
2018-09-04T02:20:07.410Z,25.07
2018-09-04T02:22:35.594Z,24.33
2018-09-04T02:25:03.780Z,25.13
2018-09-04T02:27:31.882Z,25.43
2018-09-04T02:30:00.014Z,24.53
2018-09-04T02:32:28.142Z,24.30
2018-09-04T02:34:56.292Z,22.27
2018-09-04T02:37:24.448Z,23.40
2018-09-04T02:39:52.577Z,21.57
2018-09-04T02:42:20.688Z,20.13
2018-09-04T02:44:48.848Z,22.80
2018-09-04T02:47:16.960Z,20.70
2018-09-04T02:49:45.107Z,20.77
2018-09-04T02:52:13.234Z,21.33
2018-09-04T02:54:41.356Z,23.07
2018-09-04T02:57:09.490Z,22.43
2018-09-04T02:59:37.653Z,22.60
2018-09-04T03:02:05.788Z,23.73
2018-09-04T03:04:33.943Z,23.63
2018-09-04T03:07:02.068Z,22.13
2018-09-04T03:09:30.210Z,21.90
2018-09-04T03:11:58.358Z,21.23
2018-09-04T03:14:26.492Z,21.27
2018-09-04T03:16:54.642Z,20.47
2018-09-04T03:19:22.770Z,21.63
2018-09-04T03:21:50.904Z,21.53
2018-09-04T03:24:19.072Z,20.57
2018-09-04T03:26:47.284Z,21.90
2018-09-04T03:29:15.418Z,20.90
2018-09-04T03:31:43.556Z,19.20
2018-09-04T03:34:11.736Z,20.90
2018-09-04T03:36:39.956Z,19.47
2018-09-04T03:39:09.032Z,19.93
2018-09-04T03:41:37.218Z,20.83
2018-09-04T03:44:05.444Z,19.63
2018-09-04T03:46:33.596Z,19.50
2018-09-04T03:49:01.742Z,19.00
2018-09-04T03:51:29.890Z,19.83
2018-09-04T03:53:58.053Z,20.87
2018-09-04T03:56:26.162Z,20.53
2018-09-04T03:58:54.321Z,20.13
2018-09-04T04:01:22.542Z,20.50
2018-09-04T04:03:50.616Z,20.53
2018-09-04T04:06:18.798Z,19.43
2018-09-04T04:08:46.978Z,18.60
2018-09-04T04:11:15.152Z,19.93
2018-09-04T04:13:43.348Z,19.03
2018-09-04T04:16:11.438Z,19.33
2018-09-04T04:18:39.554Z,20.63
2018-09-04T04:21:07.738Z,18.50
2018-09-04T04:23:35.860Z,17.73
2018-09-04T04:26:04.082Z,17.90
2018-09-04T04:28:32.228Z,17.33
2018-09-04T04:31:00.357Z,14.87
2018-09-04T04:33:28.479Z,15.60
2018-09-04T04:35:56.652Z,14.63
2018-09-04T04:38:24.838Z,14.60
2018-09-04T04:40:52.992Z,13.67
2018-09-04T04:43:21.178Z,13.07
2018-09-04T04:45:49.352Z,12.63
2018-09-04T04:48:17.589Z,12.17
2018-09-04T04:50:45.724Z,11.57
2018-09-04T04:53:13.996Z,10.73
2018-09-04T04:55:42.150Z,10.37
2018-09-04T04:58:10.296Z,10.97
2018-09-04T05:00:38.696Z,10.13
2018-09-04T05:03:06.964Z,10.60
2018-09-04T05:05:35.100Z,10.77
2018-09-04T05:08:03.304Z,11.30
2018-09-04T05:10:35.276Z,10.87
2018-09-04T05:13:03.594Z,10.87
2018-09-04T05:15:31.828Z,10.33
2018-09-04T05:18:00.036Z,10.93
2018-09-04T05:20:29.386Z,10.97
2018-09-04T05:22:57.540Z,11.20
2018-09-04T05:25:27.432Z,11.88
2018-09-04T05:27:55.683Z,10.50
2018-09-04T05:30:24.029Z,11.53
2018-09-04T05:32:57.216Z,10.17
2018-09-04T05:35:25.768Z,10.45
2018-09-04T05:37:54.319Z,9.47
2018-09-04T05:40:22.802Z,9.20
2018-09-04T05:42:53.768Z,8.57
2018-09-04T05:45:23.297Z,9.53
2018-09-04T05:47:55.721Z,8.30
2018-09-04T05:50:23.955Z,7.77
2018-09-04T05:52:52.105Z,9.53
2018-09-04T05:55:20.316Z,9.80
2018-09-04T05:57:48.371Z,8.73
2018-09-04T06:00:20.502Z,8.53
2018-09-04T06:02:48.646Z,8.80
2018-09-04T06:05:17.702Z,8.13
2018-09-04T06:07:45.823Z,7.10
2018-09-04T06:10:14.041Z,7.67
2018-09-04T06:12:42.187Z,8.70
2018-09-04T06:15:10.310Z,8.37
2018-09-04T06:17:38.473Z,7.20
2018-09-04T06:20:06.686Z,7.40
2018-09-04T06:22:35.182Z,8.33
2018-09-04T06:25:03.385Z,6.80
2018-09-04T06:27:31.569Z,6.67
2018-09-04T06:29:59.730Z,7.43
2018-09-04T06:32:27.874Z,7.00
2018-09-04T06:34:56.003Z,7.13
2018-09-04T06:37:24.103Z,6.97
2018-09-04T06:39:52.309Z,6.37
2018-09-04T06:42:20.433Z,6.33
2018-09-04T06:44:48.585Z,6.80
2018-09-04T06:47:16.704Z,6.97
2018-09-04T06:49:44.861Z,6.10
2018-09-04T06:52:12.946Z,6.50
2018-09-04T06:54:41.162Z,7.03
2018-09-04T06:57:09.322Z,6.27
2018-09-04T06:59:37.489Z,5.83
2018-09-04T07:02:05.651Z,5.87
2018-09-04T07:04:33.900Z,6.13
2018-09-04T07:07:02.191Z,5.87
2018-09-04T07:09:30.382Z,6.20
2018-09-04T07:11:58.515Z,6.37
2018-09-04T07:14:26.740Z,5.90
2018-09-04T07:16:54.881Z,5.97
2018-09-04T07:19:23.084Z,5.33
2018-09-04T07:21:51.320Z,5.87
2018-09-04T07:24:19.905Z,6.90
2018-09-04T07:26:48.104Z,5.37
2018-09-04T07:29:16.303Z,6.73
2018-09-04T07:31:44.507Z,6.80
2018-09-04T07:34:12.639Z,7.63
2018-09-04T07:36:40.880Z,9.70
2018-09-04T07:39:09.912Z,11.60
2018-09-04T07:41:38.686Z,12.20
2018-09-04T07:44:07.692Z,12.97
2018-09-04T07:46:36.089Z,12.47
2018-09-04T07:49:04.275Z,13.30
2018-09-04T07:51:32.479Z,13.77
2018-09-04T07:54:00.771Z,13.80
2018-09-04T07:56:29.014Z,12.57
2018-09-04T07:58:57.178Z,13.47
2018-09-04T08:01:25.336Z,12.60
2018-09-04T08:03:53.756Z,13.47
2018-09-04T08:06:21.972Z,13.40
2018-09-04T08:08:50.174Z,12.73
2018-09-04T08:11:18.415Z,13.33
2018-09-04T08:13:46.580Z,14.43
2018-09-04T08:16:14.834Z,13.37
2018-09-04T08:18:43.786Z,13.80
2018-09-04T08:21:11.976Z,14.37
2018-09-04T08:23:40.139Z,13.97
2018-09-04T08:26:08.338Z,14.10
2018-09-04T08:28:36.512Z,14.93
2018-09-04T08:31:04.690Z,14.90
2018-09-04T08:33:32.840Z,15.97
2018-09-04T08:36:01.082Z,15.70
2018-09-04T08:38:29.323Z,16.30
2018-09-04T08:40:57.497Z,15.43
2018-09-04T08:43:25.770Z,15.27
2018-09-04T08:45:54.088Z,16.60
2018-09-04T08:48:22.298Z,17.47
2018-09-04T08:50:50.470Z,15.33
2018-09-04T08:53:19.016Z,17.10
2018-09-04T08:55:47.241Z,17.50
2018-09-04T08:58:15.461Z,15.37
2018-09-04T09:00:43.647Z,17.50
2018-09-04T09:03:12.028Z,16.77
2018-09-04T09:05:40.372Z,18.80
2018-09-04T09:08:08.462Z,18.10
2018-09-04T09:10:36.723Z,19.33
2018-09-04T09:13:05.022Z,18.13
2018-09-04T09:15:33.151Z,18.70
2018-09-04T09:18:01.295Z,19.50
2018-09-04T09:20:29.460Z,18.33
2018-09-04T09:22:57.738Z,17.80
2018-09-04T09:25:25.830Z,19.87
2018-09-04T09:27:54.024Z,20.03
2018-09-04T09:30:22.157Z,19.20
2018-09-04T09:32:50.290Z,20.20
2018-09-04T09:35:18.648Z,20.23
2018-09-04T09:37:46.812Z,21.10
2018-09-04T09:40:14.994Z,20.07
2018-09-04T09:42:43.201Z,20.17
2018-09-04T09:45:11.400Z,19.40
2018-09-04T09:47:43.864Z,20.50
2018-09-04T09:50:12.115Z,22.03
2018-09-04T09:52:40.465Z,21.43
2018-09-04T09:55:09.622Z,21.20
2018-09-04T09:57:37.879Z,21.03
2018-09-04T10:00:13.990Z,19.87
2018-09-04T10:02:47.460Z,21.60
2018-09-04T10:05:15.714Z,20.70
2018-09-04T10:07:43.990Z,21.13
2018-09-04T10:10:12.318Z,21.17
2018-09-04T10:12:40.607Z,20.97
2018-09-04T10:15:08.823Z,20.63
2018-09-04T10:17:37.121Z,21.40
2018-09-04T10:20:05.431Z,22.27
2018-09-04T10:22:33.574Z,20.90
2018-09-04T10:25:01.938Z,20.90
2018-09-04T10:27:30.310Z,21.67
2018-09-04T10:29:58.541Z,22.43
2018-09-04T10:32:26.777Z,23.03
2018-09-04T10:34:55.065Z,22.50
2018-09-04T10:37:23.300Z,23.10
2018-09-04T10:39:56.774Z,22.50
2018-09-04T10:42:30.294Z,23.40
2018-09-04T10:44:58.510Z,22.33
2018-09-04T10:47:26.766Z,20.97
2018-09-04T10:49:55.597Z,24.10
2018-09-04T10:52:23.989Z,23.73
2018-09-04T10:54:52.334Z,22.80
2018-09-04T10:57:20.735Z,23.20
2018-09-04T10:59:48.954Z,21.07
2018-09-04T11:02:18.648Z,22.67
2018-09-04T11:04:47.732Z,22.93
2018-09-04T11:07:15.980Z,24.03
2018-09-04T11:09:44.336Z,25.00
2018-09-04T11:12:12.456Z,24.60
2018-09-04T11:14:40.656Z,24.17
2018-09-04T11:17:08.948Z,24.97
2018-09-04T11:19:37.190Z,26.13
2018-09-04T11:22:05.446Z,26.40
2018-09-04T11:24:33.679Z,25.40
2018-09-04T11:27:01.863Z,23.90
2018-09-04T11:29:30.077Z,24.53
2018-09-04T11:31:58.280Z,25.53
2018-09-04T11:34:26.444Z,26.30
2018-09-04T11:36:54.608Z,22.70
2018-09-04T11:39:22.810Z,23.27
2018-09-04T11:41:51.053Z,24.00
2018-09-04T11:44:19.236Z,25.60
2018-09-04T11:46:47.451Z,24.80
2018-09-04T11:49:15.639Z,23.97
2018-09-04T11:51:43.874Z,25.40
2018-09-04T11:54:12.033Z,26.03
2018-09-04T11:56:40.882Z,25.33
2018-09-04T11:59:09.346Z,24.67
2018-09-04T12:01:40.288Z,24.47
2018-09-04T12:04:08.552Z,23.63
2018-09-04T12:06:36.874Z,25.27
2018-09-04T12:09:06.090Z,24.73
2018-09-04T12:11:34.226Z,24.90
2018-09-04T12:14:02.483Z,26.67
2018-09-04T12:16:30.700Z,25.20
2018-09-04T12:18:58.895Z,26.73
2018-09-04T12:21:27.067Z,25.20
2018-09-04T12:23:55.252Z,26.67
2018-09-04T12:26:23.520Z,26.13
2018-09-04T12:28:52.485Z,25.83
2018-09-04T12:31:20.754Z,25.13
2018-09-04T12:33:48.993Z,22.13
2018-09-04T12:36:17.339Z,24.20
2018-09-04T12:38:45.561Z,23.60
2018-09-04T12:41:15.796Z,24.40
2018-09-04T12:43:44.012Z,25.00
2018-09-04T12:46:12.219Z,25.20
2018-09-04T12:48:44.740Z,26.43
2018-09-04T12:51:12.985Z,24.97
2018-09-04T12:53:41.188Z,23.40
2018-09-04T12:56:09.382Z,24.73
2018-09-04T12:58:37.719Z,23.27
2018-09-04T13:01:06.320Z,25.20
2018-09-04T13:03:34.546Z,23.33
2018-09-04T13:06:02.798Z,22.80
2018-09-04T13:08:32.772Z,22.07
2018-09-04T13:11:01.002Z,25.93
2018-09-04T13:13:29.260Z,26.03
2018-09-04T13:15:59.856Z,24.77
2018-09-04T13:18:28.624Z,24.77
2018-09-04T13:21:02.723Z,25.63
2018-09-04T13:23:31.731Z,24.50
2018-09-04T13:25:59.976Z,24.67
2018-09-04T13:28:28.848Z,25.83
2018-09-04T13:30:57.052Z,26.47
2018-09-04T13:33:25.220Z,27.47
2018-09-04T13:35:53.377Z,27.00
2018-09-04T13:38:21.570Z,27.83
2018-09-04T13:40:54.036Z,27.17
2018-09-04T13:43:22.285Z,26.47
2018-09-04T13:45:50.510Z,25.27
2018-09-04T13:48:21.730Z,28.60
2018-09-04T13:50:50.020Z,25.60
2018-09-04T13:53:18.248Z,27.20
2018-09-04T13:55:46.456Z,24.40
2018-09-04T13:58:14.713Z,25.87
2018-09-04T14:00:42.877Z,25.83
2018-09-04T14:03:11.068Z,26.50
2018-09-04T14:05:39.247Z,27.13
2018-09-04T14:08:07.437Z,27.60
2018-09-04T14:10:35.588Z,26.97
2018-09-04T14:13:03.784Z,26.40
2018-09-04T14:15:32.020Z,25.47
2018-09-04T14:18:00.202Z,24.33
2018-09-04T14:20:28.394Z,22.73
2018-09-04T14:22:56.606Z,24.90
2018-09-04T14:25:24.727Z,25.07
2018-09-04T14:27:52.872Z,26.00
2018-09-04T14:30:21.139Z,24.83
2018-09-04T14:32:49.288Z,24.73
2018-09-04T14:35:17.459Z,23.70
2018-09-04T14:37:45.638Z,25.20
2018-09-04T14:40:13.876Z,25.77
2018-09-04T14:42:42.063Z,23.17
2018-09-04T14:45:10.313Z,24.63
2018-09-04T14:47:38.483Z,25.70
2018-09-04T14:50:06.683Z,27.27
2018-09-04T14:52:34.860Z,26.90
2018-09-04T14:55:03.134Z,24.90
2018-09-04T14:57:31.362Z,25.33
2018-09-04T14:59:59.618Z,27.33
2018-09-04T15:02:27.914Z,25.90
2018-09-04T15:04:56.114Z,24.67
2018-09-04T15:07:24.298Z,24.17
2018-09-04T15:09:52.448Z,24.00
2018-09-04T15:12:20.680Z,23.53
2018-09-04T15:14:49.016Z,26.40
2018-09-04T15:17:17.220Z,26.70
2018-09-04T15:19:45.406Z,28.20
2018-09-04T15:22:13.606Z,27.20
2018-09-04T15:24:41.761Z,25.70
2018-09-04T15:27:09.937Z,28.80
2018-09-04T15:29:38.080Z,27.97
2018-09-04T15:32:06.304Z,26.13
2018-09-04T15:34:34.454Z,25.27
2018-09-04T15:37:02.685Z,25.63
2018-09-04T15:39:30.790Z,26.70
2018-09-04T15:41:59.056Z,28.10
2018-09-04T15:44:27.254Z,28.43
2018-09-04T15:46:55.473Z,29.03
2018-09-04T15:49:28.847Z,29.23
2018-09-04T15:51:56.971Z,26.70
2018-09-04T15:54:25.068Z,26.60
2018-09-04T15:56:53.308Z,29.13
2018-09-04T15:59:21.420Z,25.87
2018-09-04T16:01:49.694Z,23.53
2018-09-04T16:04:18.026Z,25.80
2018-09-04T16:06:46.167Z,28.23
2018-09-04T16:09:14.358Z,25.43
2018-09-04T16:11:42.552Z,25.30
2018-09-04T16:14:10.728Z,27.53
2018-09-04T16:16:38.963Z,29.60
2018-09-04T16:19:07.385Z,29.23
2018-09-04T16:21:35.704Z,28.87
2018-09-04T16:24:03.946Z,27.97
2018-09-04T16:26:32.491Z,28.57
2018-09-04T16:29:00.738Z,26.10
2018-09-04T16:31:28.902Z,27.10
2018-09-04T16:33:57.125Z,28.13
2018-09-04T16:36:25.307Z,24.43
2018-09-04T16:38:53.482Z,24.30
2018-09-04T16:41:21.615Z,26.93
2018-09-04T16:43:50.313Z,28.57
2018-09-04T16:46:18.498Z,27.20
2018-09-04T16:48:46.755Z,25.97
2018-09-04T16:51:14.957Z,25.17
2018-09-04T16:53:44.476Z,27.17
2018-09-04T16:56:12.956Z,24.23
2018-09-04T16:58:41.205Z,25.53
2018-09-04T17:01:10.684Z,27.87
2018-09-04T17:03:38.981Z,27.13
2018-09-04T17:08:54.169Z,28.67
2018-09-04T17:11:22.526Z,28.63
2018-09-04T17:13:50.928Z,28.83
2018-09-04T17:16:19.365Z,28.03
2018-09-04T17:18:47.651Z,28.53
2018-09-04T17:21:16.016Z,30.70
2018-09-04T17:23:44.288Z,29.17
2018-09-04T17:26:12.618Z,31.27
2018-09-04T17:28:41.016Z,31.53
2018-09-04T17:31:09.586Z,30.80
2018-09-04T17:33:38.003Z,29.63
2018-09-04T17:36:08.600Z,29.63
2018-09-04T17:38:37.494Z,29.67
2018-09-04T17:41:05.874Z,29.90
2018-09-04T17:43:34.329Z,33.60
2018-09-04T17:46:02.552Z,31.80
2018-09-04T17:48:32.746Z,30.23
2018-09-04T17:51:01.187Z,30.07
2018-09-04T17:53:29.606Z,29.13
2018-09-04T17:55:58.058Z,31.17
2018-09-04T17:58:26.373Z,31.87
2018-09-04T18:00:54.639Z,31.13
2018-09-04T18:03:23.156Z,32.50
2018-09-04T18:05:51.566Z,32.07
2018-09-04T18:08:19.938Z,31.00
2018-09-04T18:10:48.386Z,28.60
2018-09-04T18:13:16.731Z,29.57
2018-09-04T18:15:44.982Z,29.10
2018-09-04T18:18:13.281Z,31.20
2018-09-04T18:20:41.559Z,30.80
2018-09-04T18:23:09.767Z,29.03
2018-09-04T18:25:38.015Z,29.83
2018-09-04T18:28:06.233Z,27.87
2018-09-04T18:30:35.235Z,27.40
2018-09-04T18:33:03.457Z,27.90
2018-09-04T18:35:31.738Z,28.53
2018-09-04T18:37:59.963Z,29.70
2018-09-04T18:40:28.112Z,28.13
2018-09-04T18:42:56.441Z,31.90
2018-09-04T18:45:30.312Z,29.33
2018-09-04T18:47:58.555Z,26.53
2018-09-04T18:50:26.835Z,26.07
2018-09-04T18:52:55.095Z,26.63
2018-09-04T18:55:23.360Z,25.53
2018-09-04T18:57:51.602Z,24.07
2018-09-04T19:00:19.809Z,24.20
2018-09-04T19:02:48.972Z,26.27
2018-09-04T19:05:17.223Z,25.97
2018-09-04T19:07:45.472Z,33.30
2018-09-04T19:10:13.747Z,29.47
2018-09-04T19:12:42.074Z,32.60
2018-09-04T19:15:10.290Z,30.23
2018-09-04T19:17:38.945Z,26.27
2018-09-04T19:20:07.299Z,27.07
2018-09-04T19:22:35.528Z,27.67
2018-09-04T19:25:03.789Z,28.80
2018-09-04T19:27:31.992Z,26.63
2018-09-04T19:30:00.212Z,25.87
2018-09-04T19:32:28.537Z,22.23
2018-09-04T19:34:56.747Z,21.97
2018-09-04T19:37:25.075Z,21.40
2018-09-04T19:39:53.321Z,21.47
2018-09-04T19:42:21.625Z,23.50
2018-09-04T19:44:49.973Z,25.67
2018-09-04T19:47:18.207Z,24.40
2018-09-04T19:49:46.481Z,26.27
2018-09-04T19:52:14.709Z,29.20
2018-09-04T19:54:42.997Z,33.57
2018-09-04T19:57:11.242Z,33.67
2018-09-04T19:59:39.604Z,33.13
2018-09-04T20:02:07.835Z,36.63
2018-09-04T20:04:36.108Z,33.87
2018-09-04T20:07:04.498Z,36.87
2018-09-04T20:09:32.816Z,36.83
2018-09-04T20:12:01.006Z,35.23
2018-09-04T20:14:29.223Z,32.00
2018-09-04T20:16:57.415Z,32.03
2018-09-04T20:19:25.583Z,35.57
2018-09-04T20:21:53.752Z,38.30
2018-09-04T20:24:22.264Z,43.83
2018-09-04T20:26:50.516Z,40.37
2018-09-04T20:29:18.734Z,35.97
2018-09-04T20:31:46.965Z,35.50
2018-09-04T20:34:15.113Z,34.07
2018-09-04T20:36:43.278Z,42.90
2018-09-04T20:39:11.451Z,33.47
2018-09-04T20:41:39.704Z,32.27
2018-09-04T20:44:07.904Z,31.90
2018-09-04T20:46:36.101Z,31.27
2018-09-04T20:49:04.275Z,28.60
2018-09-04T20:51:32.472Z,33.37
2018-09-04T20:54:00.703Z,28.80
2018-09-04T20:56:29.020Z,31.87
2018-09-04T20:59:02.762Z,30.50
2018-09-04T21:01:36.499Z,28.20
2018-09-04T21:04:10.309Z,27.67
2018-09-04T21:06:42.423Z,27.23
2018-09-04T21:09:21.442Z,31.80
2018-09-04T21:11:49.542Z,31.77
2018-09-04T21:14:17.803Z,39.20
2018-09-04T21:16:46.021Z,35.60
2018-09-04T21:19:14.253Z,32.73
2018-09-04T21:21:42.437Z,33.33
2018-09-04T21:24:10.602Z,32.20
2018-09-04T21:26:38.775Z,32.90
2018-09-04T21:29:07.006Z,35.47
2018-09-04T21:31:35.184Z,33.37
2018-09-04T21:34:03.379Z,34.33
2018-09-04T21:36:31.516Z,31.07
2018-09-04T21:38:59.786Z,31.73
2018-09-04T21:41:27.911Z,32.77
2018-09-04T21:43:56.095Z,37.87
2018-09-04T21:46:24.221Z,40.20
2018-09-04T21:48:52.411Z,38.30
2018-09-04T21:51:20.569Z,34.97
2018-09-04T21:53:48.720Z,38.57
2018-09-04T21:56:16.974Z,40.10
2018-09-04T21:58:45.138Z,38.93
2018-09-04T22:01:13.321Z,42.30
2018-09-04T22:03:41.421Z,38.53
2018-09-04T22:06:09.541Z,33.83
2018-09-04T22:08:37.724Z,36.23
2018-09-04T22:11:05.906Z,35.80
2018-09-04T22:13:34.042Z,38.67
2018-09-04T22:16:02.154Z,37.77
2018-09-04T22:18:30.291Z,39.27
2018-09-04T22:20:58.431Z,37.70
2018-09-04T22:23:26.585Z,40.07
2018-09-04T22:25:54.751Z,38.57
2018-09-04T22:28:22.919Z,40.53
2018-09-04T22:30:51.062Z,39.67
2018-09-04T22:33:19.172Z,38.97
2018-09-04T22:35:47.344Z,41.20
2018-09-04T22:38:15.484Z,35.70
2018-09-04T22:40:43.642Z,35.60
2018-09-04T22:43:11.817Z,36.30
2018-09-04T22:45:41.554Z,37.13
2018-09-04T22:48:09.742Z,35.40
2018-09-04T22:50:43.176Z,33.93
2018-09-04T22:53:11.278Z,31.30
2018-09-04T22:55:39.416Z,30.27
2018-09-04T22:58:07.613Z,32.50
2018-09-04T23:00:35.833Z,34.23
2018-09-04T23:03:04.622Z,35.97
2018-09-04T23:05:32.797Z,34.67
2018-09-04T23:08:00.919Z,32.27
2018-09-04T23:10:29.075Z,32.53
2018-09-04T23:12:57.225Z,30.00
2018-09-04T23:15:25.435Z,33.53
2018-09-04T23:17:53.583Z,29.10
2018-09-04T23:20:21.747Z,31.70
2018-09-04T23:22:49.887Z,30.80
2018-09-04T23:25:18.057Z,31.87
2018-09-04T23:27:46.194Z,32.17
2018-09-04T23:30:14.391Z,30.27
2018-09-04T23:32:43.635Z,34.17
2018-09-04T23:35:11.804Z,34.77
2018-09-04T23:37:39.943Z,36.00
2018-09-04T23:40:08.114Z,39.37
2018-09-04T23:42:36.283Z,35.80
2018-09-04T23:45:04.870Z,34.80
2018-09-04T23:47:33.002Z,33.43
2018-09-04T23:50:01.218Z,33.80
2018-09-04T23:52:29.329Z,29.87
2018-09-04T23:54:57.498Z,29.67
2018-09-04T23:57:25.635Z,32.27
2018-09-04T23:59:53.801Z,32.27
